KMBS

Mbs International Airport

Saginaw, Michigan, USA
METAR KMBS 160553Z AUTO 21006KT 10SM CLR 23/20 A2999 RMK AO2 SLP151 T02280200 10267 20217 51006
Observed Flight Rules
Aug-16 @ 05:53 UTC (23 minutes ago) Visual Flight Rules
Wind Visibility Clouds
210° at 6 knots 10 miles
  • Clear skies
Temperatures Readings
Current 23°C / 73°F
Dewpoint 20°C / 68°F
Humidity 83%
Altimeter 29.99" Hg
Pressure 1015.1 hPa
Elevation 202
METAR KMBS 160553Z AUTO 21006KT 10SM CLR 23/20 A2999 RMK AO2 SLP151 T02280200 10267 20217 51006
Observed Flight Rules
Aug-16 @ 05:53 UTC
(23 minutes ago)
VFR
Wind Visibility
210° at 6 knots 10 miles
Clouds
  • Clear skies
Temperature Dewpoint
23°C / 73°F 20°C / 68°F
Humidity Altimeter Pressure
83% 29.99" Hg 1015.1 hPa